createdAt,value
2023-03-07T00:01:27.397Z,12.20
2023-03-07T00:03:55.535Z,12.13
2023-03-07T00:06:23.942Z,12.00
2023-03-07T00:08:52.931Z,12.10
2023-03-07T00:11:21.289Z,12.30
2023-03-07T00:13:49.347Z,12.17
2023-03-07T00:16:19.724Z,12.44
2023-03-07T00:18:47.812Z,12.27
2023-03-07T00:21:17.609Z,12.25
2023-03-07T00:23:46.239Z,12.27
2023-03-07T00:26:16.297Z,12.14
2023-03-07T00:28:46.511Z,12.30
2023-03-07T00:31:15.095Z,12.22
2023-03-07T00:33:43.307Z,12.38
2023-03-07T00:36:15.828Z,12.20
2023-03-07T00:38:44.967Z,12.25
2023-03-07T00:41:15.327Z,12.34
2023-03-07T00:43:43.742Z,12.41
2023-03-07T00:46:11.959Z,12.18
2023-03-07T00:48:40.825Z,12.04
2023-03-07T00:51:10.212Z,12.31
2023-03-07T00:53:38.213Z,11.92
2023-03-07T00:56:10.503Z,11.90
2023-03-07T00:58:38.393Z,11.98
2023-03-07T01:01:07.551Z,11.86
2023-03-07T01:03:35.953Z,11.74
2023-03-07T01:06:05.839Z,11.86
2023-03-07T01:08:35.831Z,11.85
2023-03-07T01:11:05.652Z,11.71
2023-03-07T01:13:34.700Z,11.83
2023-03-07T01:16:15.804Z,11.87
2023-03-07T01:18:44.812Z,11.80
2023-03-07T01:21:13.752Z,12.06
2023-03-07T01:23:42.121Z,11.81
2023-03-07T01:26:15.693Z,11.76
2023-03-07T01:28:44.061Z,11.76
2023-03-07T01:31:12.861Z,11.99
2023-03-07T01:33:41.820Z,11.91
2023-03-07T01:36:19.478Z,11.60
2023-03-07T01:38:49.660Z,11.58
2023-03-07T01:41:18.475Z,11.33
2023-03-07T01:43:49.501Z,11.38
2023-03-07T01:46:39.812Z,11.39
2023-03-07T01:49:13.630Z,11.56
2023-03-07T01:51:44.212Z,11.36
2023-03-07T01:54:13.412Z,11.23
2023-03-07T01:56:43.907Z,11.26
2023-03-07T01:59:12.236Z,11.58
2023-03-07T02:01:41.466Z,11.46
2023-03-07T02:04:09.254Z,11.44
2023-03-07T02:06:38.496Z,11.42
2023-03-07T02:09:14.148Z,11.35
2023-03-07T02:11:43.665Z,11.40
2023-03-07T02:14:11.470Z,11.26
2023-03-07T02:16:40.290Z,11.10
2023-03-07T02:19:28.355Z,11.16
2023-03-07T02:21:59.854Z,11.16
2023-03-07T02:24:36.777Z,11.03
2023-03-07T02:27:06.199Z,11.17
2023-03-07T02:29:34.978Z,11.34
2023-03-07T02:32:03.240Z,11.20
2023-03-07T02:34:31.852Z,11.41
2023-03-07T02:37:22.005Z,11.52
2023-03-07T02:39:50.947Z,11.49
2023-03-07T02:42:23.164Z,11.47
2023-03-07T02:45:00.816Z,11.15
2023-03-07T02:47:32.031Z,11.29
2023-03-07T02:50:00.555Z,11.30
2023-03-07T02:52:30.051Z,11.21
2023-03-07T02:54:59.182Z,11.33
2023-03-07T02:57:31.901Z,11.34
2023-03-07T03:00:00.633Z,11.32
2023-03-07T03:02:28.752Z,11.42
2023-03-07T03:04:56.591Z,11.34
2023-03-07T03:07:24.795Z,11.42
2023-03-07T03:09:52.575Z,11.22
2023-03-07T03:12:21.873Z,11.27
2023-03-07T03:14:49.856Z,11.26
2023-03-07T03:17:18.906Z,11.17
2023-03-07T03:19:46.896Z,11.17
2023-03-07T03:22:14.957Z,11.04
2023-03-07T03:24:46.586Z,10.95
2023-03-07T03:27:17.676Z,10.84
2023-03-07T03:29:48.029Z,10.84
2023-03-07T03:32:16.418Z,10.97
2023-03-07T03:34:45.687Z,10.84
2023-03-07T03:37:13.959Z,11.09
2023-03-07T03:39:41.907Z,11.17
2023-03-07T03:42:10.600Z,11.06
2023-03-07T03:44:38.397Z,11.03
2023-03-07T03:47:06.778Z,11.00
2023-03-07T03:49:34.678Z,11.12
2023-03-07T03:52:02.765Z,11.04
2023-03-07T03:54:31.195Z,11.02
2023-03-07T03:56:59.524Z,11.04
2023-03-07T03:59:28.176Z,11.10
2023-03-07T04:01:56.216Z,10.86
2023-03-07T04:04:24.014Z,10.82
2023-03-07T04:06:52.283Z,10.53
2023-03-07T04:09:19.920Z,10.66
2023-03-07T04:11:49.261Z,10.62
2023-03-07T04:14:17.727Z,10.68
2023-03-07T04:16:47.528Z,10.85
2023-03-07T04:19:16.280Z,10.79
2023-03-07T04:21:44.827Z,10.78
2023-03-07T04:24:15.870Z,10.66
2023-03-07T04:26:43.948Z,10.66
2023-03-07T04:29:12.034Z,10.74
2023-03-07T04:31:44.909Z,10.61
2023-03-07T04:34:12.985Z,10.71
2023-03-07T04:36:41.171Z,10.64
2023-03-07T04:39:09.129Z,10.64
2023-03-07T04:41:37.331Z,10.50
2023-03-07T04:44:17.730Z,10.56
2023-03-07T04:46:45.921Z,10.39
2023-03-07T04:49:13.651Z,10.48
2023-03-07T04:51:44.022Z,10.54
2023-03-07T04:54:13.800Z,10.48
2023-03-07T04:56:43.085Z,10.40
2023-03-07T04:59:12.120Z,10.64
2023-03-07T05:01:42.257Z,10.54
2023-03-07T05:04:10.081Z,10.44
2023-03-07T05:06:39.945Z,10.43
2023-03-07T05:09:08.471Z,10.22
2023-03-07T05:11:36.899Z,10.34
2023-03-07T05:14:04.963Z,10.23
2023-03-07T05:16:33.847Z,10.45
2023-03-07T05:19:01.579Z,10.37
2023-03-07T05:21:32.105Z,10.46
2023-03-07T05:24:00.118Z,10.70
2023-03-07T05:26:28.286Z,10.68
2023-03-07T05:28:55.996Z,10.58
2023-03-07T05:31:24.768Z,10.35
2023-03-07T05:33:52.708Z,10.33
2023-03-07T05:36:20.792Z,10.55
2023-03-07T05:38:48.508Z,10.29
2023-03-07T05:41:17.595Z,10.28
2023-03-07T05:43:45.381Z,10.62
2023-03-07T05:46:13.601Z,10.37
2023-03-07T05:48:41.684Z,10.45
2023-03-07T05:51:09.730Z,10.48
2023-03-07T05:53:37.628Z,10.35
2023-03-07T05:56:05.957Z,10.32
2023-03-07T05:58:34.008Z,10.33
2023-03-07T06:01:02.400Z,10.71
2023-03-07T06:03:30.507Z,10.68
2023-03-07T06:05:58.594Z,10.38
2023-03-07T06:08:26.327Z,10.22
2023-03-07T06:10:55.065Z,10.08
2023-03-07T06:13:24.581Z,10.29
2023-03-07T06:15:53.933Z,10.46
2023-03-07T06:18:24.339Z,10.42
2023-03-07T06:20:56.826Z,10.28
2023-03-07T06:23:25.136Z,10.27
2023-03-07T06:25:53.668Z,10.52
2023-03-07T06:28:21.446Z,10.10
2023-03-07T06:30:49.935Z,9.67
2023-03-07T06:33:17.887Z,9.69
2023-03-07T06:35:46.489Z,9.94
2023-03-07T06:38:15.407Z,10.32
2023-03-07T06:40:44.367Z,9.98
2023-03-07T06:43:13.547Z,10.27
2023-03-07T06:45:41.903Z,10.17
2023-03-07T06:48:10.980Z,10.12
2023-03-07T06:50:40.784Z,10.26
2023-03-07T06:53:08.879Z,10.34
2023-03-07T06:55:37.197Z,10.43
2023-03-07T06:58:04.909Z,10.49
2023-03-07T07:00:32.938Z,10.27
2023-03-07T07:03:00.821Z,10.67
2023-03-07T07:05:28.847Z,10.58
2023-03-07T07:07:56.612Z,10.83
2023-03-07T07:10:24.637Z,10.95
2023-03-07T07:12:56.807Z,10.73
2023-03-07T07:15:26.251Z,11.22
2023-03-07T07:17:54.128Z,11.16
2023-03-07T07:20:23.556Z,10.95
2023-03-07T07:22:51.375Z,11.15
2023-03-07T07:25:20.695Z,11.36
2023-03-07T07:27:48.398Z,11.64
2023-03-07T07:30:16.544Z,11.28
2023-03-07T07:32:45.328Z,11.51
2023-03-07T07:35:13.535Z,11.95
2023-03-07T07:37:41.172Z,12.04
2023-03-07T07:40:10.721Z,12.62
2023-03-07T07:42:39.018Z,12.93
2023-03-07T07:45:18.918Z,13.26
2023-03-07T07:47:48.011Z,13.38
2023-03-07T07:50:17.024Z,13.37
2023-03-07T07:52:44.926Z,13.07
2023-03-07T07:55:16.324Z,13.59
2023-03-07T07:57:44.864Z,13.89
2023-03-07T08:00:13.609Z,14.08
2023-03-07T08:02:41.266Z,13.51
2023-03-07T08:05:10.563Z,13.99
2023-03-07T08:07:38.175Z,13.77
2023-03-07T08:10:06.557Z,13.82
2023-03-07T08:12:34.102Z,13.97
2023-03-07T08:15:02.257Z,13.72
2023-03-07T08:17:30.116Z,13.75
2023-03-07T08:20:01.924Z,13.32
2023-03-07T08:22:30.296Z,13.97
2023-03-07T08:24:58.416Z,13.59
2023-03-07T08:27:27.531Z,13.84
2023-03-07T08:29:55.750Z,13.46
2023-03-07T08:32:23.704Z,13.86
2023-03-07T08:34:51.784Z,14.51
2023-03-07T08:37:19.467Z,14.54
2023-03-07T08:39:47.841Z,14.86
2023-03-07T08:42:15.640Z,14.92
2023-03-07T08:44:43.576Z,14.86
2023-03-07T08:47:12.566Z,14.86
2023-03-07T08:49:40.954Z,15.17
2023-03-07T08:52:08.573Z,14.62
2023-03-07T08:54:36.640Z,14.66
2023-03-07T08:57:04.504Z,15.08
2023-03-07T08:59:32.525Z,15.08
2023-03-07T09:02:00.262Z,14.53
2023-03-07T09:04:28.251Z,14.71
2023-03-07T09:06:57.153Z,14.49
2023-03-07T09:09:25.164Z,13.95
2023-03-07T09:11:52.762Z,14.31
2023-03-07T09:14:20.779Z,14.43
2023-03-07T09:16:48.360Z,14.87
2023-03-07T09:19:16.324Z,15.04
2023-03-07T09:21:43.885Z,15.95
2023-03-07T09:24:11.786Z,15.50
2023-03-07T09:26:39.369Z,16.04
2023-03-07T09:29:07.266Z,16.68
2023-03-07T09:31:35.040Z,16.84
2023-03-07T09:34:03.049Z,16.92
2023-03-07T09:36:30.683Z,16.46
2023-03-07T09:38:58.922Z,15.79
2023-03-07T09:41:32.639Z,16.11
2023-03-07T09:44:06.617Z,16.38
2023-03-07T09:46:52.716Z,17.25
2023-03-07T09:49:26.239Z,17.85
2023-03-07T09:51:57.905Z,17.45
2023-03-07T09:54:29.390Z,18.21
2023-03-07T09:57:00.920Z,18.48
2023-03-07T09:59:31.829Z,18.15
2023-03-07T10:02:19.637Z,17.42
2023-03-07T10:04:53.692Z,17.09
2023-03-07T10:07:23.631Z,17.36
2023-03-07T10:09:54.701Z,18.04
2023-03-07T10:12:39.747Z,18.74
2023-03-07T10:15:28.342Z,18.81
2023-03-07T10:17:58.946Z,19.00
2023-03-07T10:20:40.521Z,18.91
2023-03-07T10:23:23.601Z,19.04
2023-03-07T10:26:01.347Z,19.58
2023-03-07T10:28:31.724Z,18.49
2023-03-07T10:31:19.596Z,17.59
2023-03-07T10:33:48.522Z,18.96
2023-03-07T10:36:16.548Z,19.87
2023-03-07T10:38:55.774Z,18.95
2023-03-07T10:41:24.221Z,19.91
2023-03-07T10:43:52.861Z,20.15
2023-03-07T10:46:27.556Z,19.22
2023-03-07T10:49:15.920Z,19.78
2023-03-07T10:51:43.881Z,18.82
2023-03-07T10:54:15.001Z,19.52
2023-03-07T10:57:02.744Z,18.53
2023-03-07T10:59:30.498Z,19.12
2023-03-07T11:01:59.764Z,19.95
2023-03-07T11:04:28.955Z,19.68
2023-03-07T11:06:58.232Z,21.10
2023-03-07T11:09:36.070Z,22.03
2023-03-07T11:12:06.782Z,20.31
2023-03-07T11:14:47.469Z,20.75
2023-03-07T11:17:25.020Z,19.99
2023-03-07T11:19:56.275Z,19.65
2023-03-07T11:22:34.076Z,19.09
2023-03-07T11:25:14.335Z,20.24
2023-03-07T11:27:45.404Z,19.07
2023-03-07T11:30:28.206Z,19.20
2023-03-07T11:32:58.777Z,19.50
2023-03-07T11:35:44.960Z,20.68
2023-03-07T11:38:31.896Z,20.75
2023-03-07T11:41:02.464Z,21.37
2023-03-07T11:43:42.779Z,19.82
2023-03-07T11:46:17.144Z,18.62
2023-03-07T11:49:11.757Z,19.12
2023-03-07T11:51:54.950Z,18.82
2023-03-07T11:54:29.293Z,18.45
2023-03-07T11:57:01.456Z,18.07
2023-03-07T11:59:44.831Z,18.70
2023-03-07T12:02:21.588Z,19.11
2023-03-07T12:04:55.515Z,18.16
2023-03-07T12:07:23.337Z,18.01
2023-03-07T12:09:54.633Z,19.02
2023-03-07T12:12:48.680Z,18.65
2023-03-07T12:15:16.583Z,18.28
2023-03-07T12:17:56.274Z,18.46
2023-03-07T12:20:43.284Z,18.76
2023-03-07T12:23:15.734Z,19.71
2023-03-07T12:25:49.896Z,19.99
2023-03-07T12:28:36.109Z,20.09
2023-03-07T12:31:22.656Z,19.88
2023-03-07T12:33:53.076Z,18.81
2023-03-07T12:36:27.830Z,19.28
2023-03-07T12:39:06.645Z,18.61
2023-03-07T12:41:40.241Z,18.48
2023-03-07T12:44:12.887Z,18.96
2023-03-07T12:46:46.805Z,18.90
2023-03-07T12:49:20.043Z,18.32
2023-03-07T12:51:51.250Z,18.85
2023-03-07T12:54:27.436Z,19.16
2023-03-07T12:57:17.823Z,18.65
2023-03-07T12:59:45.858Z,18.38
2023-03-07T13:02:13.822Z,18.58
2023-03-07T13:04:44.931Z,19.20
2023-03-07T13:07:18.360Z,18.46
2023-03-07T13:09:47.524Z,18.86
2023-03-07T13:12:25.518Z,19.58
2023-03-07T13:14:57.631Z,19.24
2023-03-07T13:17:31.866Z,19.37
2023-03-07T13:20:00.969Z,18.82
2023-03-07T13:22:29.010Z,18.28
2023-03-07T13:25:15.312Z,19.25
2023-03-07T13:27:46.099Z,18.85
2023-03-07T13:30:14.828Z,19.34
2023-03-07T13:32:51.974Z,18.68
2023-03-07T13:35:31.640Z,19.04
2023-03-07T13:38:22.634Z,19.12
2023-03-07T13:40:59.108Z,19.21
2023-03-07T13:43:32.547Z,19.43
2023-03-07T13:46:00.286Z,19.58
2023-03-07T13:48:28.514Z,19.63
2023-03-07T13:50:59.032Z,20.58
2023-03-07T13:53:45.812Z,20.80
2023-03-07T13:56:16.341Z,20.14
2023-03-07T13:58:52.683Z,20.55
2023-03-07T14:01:25.285Z,20.66
2023-03-07T14:04:00.162Z,20.81
2023-03-07T14:06:39.437Z,20.75
2023-03-07T14:09:12.050Z,20.59
2023-03-07T14:11:39.662Z,19.43
2023-03-07T14:14:16.673Z,18.27
2023-03-07T14:16:48.437Z,18.23
2023-03-07T14:19:28.324Z,18.48
2023-03-07T14:22:06.316Z,18.35
2023-03-07T14:24:40.845Z,18.67
2023-03-07T14:27:13.407Z,18.59
2023-03-07T14:29:49.613Z,19.07
2023-03-07T14:32:25.203Z,19.15
2023-03-07T14:34:56.236Z,18.60
2023-03-07T14:37:26.696Z,18.59
2023-03-07T14:40:14.940Z,18.37
2023-03-07T14:42:48.389Z,18.17
2023-03-07T14:45:32.885Z,17.92
2023-03-07T14:48:03.323Z,17.51
2023-03-07T14:50:32.146Z,17.38
2023-03-07T14:53:04.369Z,17.75
2023-03-07T14:55:38.120Z,17.98
2023-03-07T14:58:06.180Z,18.22
2023-03-07T15:00:36.070Z,17.65
2023-03-07T15:03:08.537Z,17.62
2023-03-07T15:05:50.149Z,18.17
2023-03-07T15:08:41.079Z,18.65
2023-03-07T15:11:33.115Z,18.13
2023-03-07T15:14:19.336Z,17.70
2023-03-07T15:16:50.324Z,17.45
2023-03-07T15:19:22.220Z,17.78
2023-03-07T15:21:53.076Z,17.49
2023-03-07T15:24:25.992Z,17.51
2023-03-07T15:26:55.754Z,17.50
2023-03-07T15:29:24.907Z,18.06
2023-03-07T15:32:00.366Z,17.63
2023-03-07T15:34:30.976Z,17.44
2023-03-07T15:37:17.915Z,17.80
2023-03-07T15:39:54.487Z,17.56
2023-03-07T15:42:22.667Z,17.39
2023-03-07T15:44:54.786Z,17.33
2023-03-07T15:47:23.948Z,17.48
2023-03-07T15:49:53.368Z,17.24
2023-03-07T15:52:25.005Z,17.29
2023-03-07T15:54:53.861Z,17.12
2023-03-07T15:57:27.739Z,17.26
2023-03-07T16:00:18.825Z,17.24
2023-03-07T16:02:48.219Z,16.92
2023-03-07T16:05:25.025Z,16.63
2023-03-07T16:07:54.331Z,17.00
2023-03-07T16:10:24.686Z,17.05
2023-03-07T16:12:53.086Z,17.06
2023-03-07T16:15:22.646Z,16.97
2023-03-07T16:17:55.219Z,17.01
2023-03-07T16:20:25.029Z,16.74
2023-03-07T16:22:53.116Z,16.91
2023-03-07T16:25:21.749Z,17.00
2023-03-07T16:27:54.439Z,16.87
2023-03-07T16:30:26.093Z,16.60
2023-03-07T16:32:54.567Z,16.75
2023-03-07T16:35:26.922Z,16.59
2023-03-07T16:37:55.662Z,16.52
2023-03-07T16:40:26.264Z,16.29
2023-03-07T16:42:54.924Z,16.54
2023-03-07T16:45:29.787Z,16.53
2023-03-07T16:47:59.171Z,16.16
2023-03-07T16:50:28.651Z,16.35
2023-03-07T16:52:56.709Z,16.21
2023-03-07T16:55:24.619Z,16.36
2023-03-07T16:57:55.046Z,16.26
2023-03-07T17:00:24.349Z,15.97
2023-03-07T17:02:53.705Z,16.38
2023-03-07T17:05:25.718Z,16.03
2023-03-07T17:07:54.551Z,16.18
2023-03-07T17:10:23.262Z,16.02
2023-03-07T17:12:51.372Z,16.04
2023-03-07T17:15:21.975Z,16.00
2023-03-07T17:17:49.928Z,15.96
2023-03-07T17:20:20.767Z,16.14
2023-03-07T17:22:50.826Z,16.32
2023-03-07T17:25:18.525Z,16.11
2023-03-07T17:27:48.924Z,15.90
2023-03-07T17:30:19.540Z,15.89
2023-03-07T17:32:47.992Z,16.04
2023-03-07T17:35:16.306Z,15.86
2023-03-07T17:37:45.608Z,15.99
2023-03-07T17:40:13.794Z,16.06
2023-03-07T17:42:42.514Z,15.70
2023-03-07T17:45:11.533Z,15.75
2023-03-07T17:47:39.973Z,15.47
2023-03-07T17:50:08.454Z,15.43
2023-03-07T17:52:37.271Z,15.39
2023-03-07T17:55:09.444Z,15.12
2023-03-07T17:57:37.604Z,15.38
2023-03-07T18:00:13.676Z,15.26
2023-03-07T18:02:44.480Z,15.48
2023-03-07T18:05:15.563Z,15.07
2023-03-07T18:07:43.756Z,15.36
2023-03-07T18:10:12.800Z,15.26
2023-03-07T18:12:40.852Z,15.19
2023-03-07T18:15:12.494Z,15.26
2023-03-07T18:17:47.756Z,15.35
2023-03-07T18:20:19.476Z,15.43
2023-03-07T18:22:47.690Z,15.38
2023-03-07T18:25:17.297Z,15.71
2023-03-07T18:27:45.355Z,15.64
2023-03-07T18:30:14.270Z,15.67
2023-03-07T18:32:42.375Z,15.67
2023-03-07T18:35:10.726Z,15.02
2023-03-07T18:37:39.190Z,15.46
2023-03-07T18:40:07.357Z,15.08
2023-03-07T18:42:35.475Z,15.18
2023-03-07T18:45:03.108Z,15.25
2023-03-07T18:47:31.201Z,15.45
2023-03-07T18:49:58.928Z,15.34
2023-03-07T18:52:26.867Z,15.01
2023-03-07T18:54:54.620Z,14.82
2023-03-07T18:57:22.657Z,14.88
2023-03-07T18:59:51.317Z,14.79
2023-03-07T19:02:19.490Z,14.47
2023-03-07T19:04:47.182Z,14.29
2023-03-07T19:07:15.192Z,14.46
2023-03-07T19:09:44.683Z,14.61
2023-03-07T19:12:13.789Z,14.53
2023-03-07T19:14:41.489Z,14.45
2023-03-07T19:17:09.485Z,14.43
2023-03-07T19:19:38.018Z,14.59
2023-03-07T19:22:06.243Z,14.10
2023-03-07T19:24:33.884Z,14.28
2023-03-07T19:27:01.855Z,14.33
2023-03-07T19:29:29.523Z,14.24
2023-03-07T19:31:57.484Z,14.33
2023-03-07T19:34:25.105Z,14.03
2023-03-07T19:36:53.137Z,14.25
2023-03-07T19:39:20.794Z,14.40
2023-03-07T19:41:48.978Z,14.08
2023-03-07T19:44:17.159Z,14.11
2023-03-07T19:46:47.839Z,14.05
2023-03-07T19:49:16.040Z,14.29
2023-03-07T19:51:44.096Z,14.14
2023-03-07T19:54:15.172Z,14.34
2023-03-07T19:56:45.183Z,14.24
2023-03-07T19:59:12.910Z,14.17
2023-03-07T20:01:40.976Z,14.30
2023-03-07T20:04:09.748Z,14.23
2023-03-07T20:06:39.066Z,14.21
2023-03-07T20:09:06.725Z,14.13
2023-03-07T20:11:35.391Z,14.17
2023-03-07T20:14:05.065Z,14.27
2023-03-07T20:16:34.112Z,14.24
2023-03-07T20:19:04.181Z,14.12
2023-03-07T20:21:32.729Z,14.08
2023-03-07T20:24:00.777Z,14.19
2023-03-07T20:26:33.294Z,14.38
2023-03-07T20:29:01.879Z,14.15
2023-03-07T20:31:30.034Z,14.28
2023-03-07T20:33:58.695Z,14.15
2023-03-07T20:36:27.901Z,14.37
2023-03-07T20:38:57.082Z,14.16
2023-03-07T20:41:27.033Z,14.15
2023-03-07T20:43:57.321Z,14.14
2023-03-07T20:46:25.619Z,14.17
2023-03-07T20:48:56.643Z,14.00
2023-03-07T20:51:29.073Z,13.89
2023-03-07T20:54:00.705Z,13.86
2023-03-07T20:56:30.597Z,13.81
2023-03-07T20:58:58.726Z,13.76
2023-03-07T21:01:28.934Z,13.83
2023-03-07T21:03:59.322Z,13.80
2023-03-07T21:06:27.341Z,13.81
2023-03-07T21:08:55.054Z,13.76
2023-03-07T21:11:23.438Z,13.61
2023-03-07T21:13:51.127Z,13.84
2023-03-07T21:16:23.524Z,13.67
2023-03-07T21:18:51.461Z,13.66
2023-03-07T21:21:21.377Z,13.75
2023-03-07T21:23:49.167Z,13.63
2023-03-07T21:26:18.675Z,13.74
2023-03-07T21:28:46.938Z,13.77
2023-03-07T21:31:14.982Z,13.60
2023-03-07T21:33:44.117Z,13.69
2023-03-07T21:36:14.389Z,13.77
2023-03-07T21:38:42.822Z,13.77
2023-03-07T21:41:11.097Z,13.96
2023-03-07T21:43:38.939Z,13.89
2023-03-07T21:46:08.652Z,13.93
2023-03-07T21:48:36.621Z,13.88
2023-03-07T21:51:05.212Z,13.87
2023-03-07T21:53:32.986Z,13.73
2023-03-07T21:56:02.493Z,13.77
2023-03-07T21:58:30.745Z,13.87
2023-03-07T22:00:59.079Z,14.07
2023-03-07T22:03:28.517Z,13.92
2023-03-07T22:05:57.464Z,14.04
2023-03-07T22:08:25.289Z,13.91
2023-03-07T22:11:00.652Z,13.83
2023-03-07T22:13:28.453Z,13.96
2023-03-07T22:15:57.590Z,13.95
2023-03-07T22:18:25.719Z,13.85
2023-03-07T22:20:55.289Z,13.80
2023-03-07T22:23:23.913Z,13.69
2023-03-07T22:25:51.859Z,13.94
2023-03-07T22:28:19.689Z,13.86
2023-03-07T22:30:47.692Z,13.98
2023-03-07T22:33:15.552Z,14.33
2023-03-07T22:35:43.245Z,14.28
2023-03-07T22:38:11.250Z,14.08
2023-03-07T22:40:39.572Z,13.98
2023-03-07T22:43:07.948Z,13.84
2023-03-07T22:45:35.652Z,13.95
2023-03-07T22:48:03.876Z,14.00
2023-03-07T22:50:31.627Z,14.11
2023-03-07T22:52:59.579Z,13.88
2023-03-07T22:55:27.247Z,14.10
2023-03-07T22:57:55.540Z,13.97
2023-03-07T23:00:23.367Z,14.08
2023-03-07T23:02:51.441Z,14.09
2023-03-07T23:05:19.107Z,14.01
2023-03-07T23:07:48.716Z,14.02
2023-03-07T23:10:16.641Z,13.97
2023-03-07T23:12:44.590Z,13.92
2023-03-07T23:15:12.228Z,13.98
2023-03-07T23:17:40.431Z,13.95
2023-03-07T23:20:09.019Z,13.99
2023-03-07T23:22:38.186Z,13.83
2023-03-07T23:25:06.011Z,13.93
2023-03-07T23:27:33.953Z,13.82
2023-03-07T23:30:01.592Z,13.91
2023-03-07T23:32:30.052Z,13.81
2023-03-07T23:34:57.791Z,13.64
2023-03-07T23:37:25.842Z,13.76
2023-03-07T23:39:53.535Z,13.60
2023-03-07T23:42:21.696Z,13.36
2023-03-07T23:44:49.817Z,13.59
2023-03-07T23:47:17.772Z,13.42
2023-03-07T23:49:45.410Z,13.33
2023-03-07T23:52:13.814Z,13.22
2023-03-07T23:54:44.141Z,13.16
2023-03-07T23:57:12.161Z,13.03
2023-03-07T23:59:39.944Z,13.18
